createdAt,value
2023-02-09T00:01:09.770Z,14.60
2023-02-09T00:03:37.094Z,23.58
2023-02-09T00:06:06.400Z,15.23
2023-02-09T00:08:33.821Z,11.73
2023-02-09T00:11:00.514Z,13.45
2023-02-09T00:13:28.220Z,18.17
2023-02-09T00:15:57.500Z,17.67
2023-02-09T00:18:25.528Z,15.43
2023-02-09T00:21:06.600Z,13.70
2023-02-09T00:23:35.820Z,17.35
2023-02-09T00:26:05.904Z,11.98
2023-02-09T00:28:32.732Z,11.13
2023-02-09T00:30:59.442Z,15.38
2023-02-09T00:33:26.033Z,12.20
2023-02-09T00:35:52.749Z,11.57
2023-02-09T00:38:19.325Z,11.30
2023-02-09T00:40:47.905Z,12.32
2023-02-09T00:43:15.338Z,11.93
2023-02-09T00:45:41.982Z,12.43
2023-02-09T00:48:08.588Z,15.27
2023-02-09T00:50:35.976Z,13.57
2023-02-09T00:53:02.534Z,12.02
2023-02-09T00:55:29.321Z,13.00
2023-02-09T00:57:56.644Z,14.60
2023-02-09T01:00:23.377Z,15.80
2023-02-09T01:02:50.058Z,12.73
2023-02-09T01:05:17.717Z,13.98
2023-02-09T01:07:44.730Z,12.40
2023-02-09T01:10:14.627Z,12.52
2023-02-09T01:12:42.637Z,13.05
2023-02-09T01:15:10.856Z,11.40
2023-02-09T01:17:37.897Z,14.77
2023-02-09T01:20:07.463Z,12.38
2023-02-09T01:22:34.243Z,14.15
2023-02-09T01:25:00.794Z,13.68
2023-02-09T01:27:27.892Z,13.85
2023-02-09T01:29:54.483Z,15.18
2023-02-09T01:32:21.050Z,13.48
2023-02-09T01:34:51.377Z,13.63
2023-02-09T01:37:18.083Z,12.30
2023-02-09T01:39:44.708Z,13.85
2023-02-09T01:42:19.645Z,14.55
2023-02-09T01:44:46.142Z,14.50
2023-02-09T01:47:17.321Z,12.93
2023-02-09T01:49:47.717Z,13.10
2023-02-09T01:52:26.982Z,11.90
2023-02-09T01:54:59.916Z,14.65
2023-02-09T01:57:34.462Z,13.85
2023-02-09T02:00:07.397Z,15.77
2023-02-09T02:02:34.677Z,14.27
2023-02-09T02:05:02.090Z,18.20
2023-02-09T02:07:36.438Z,14.80
2023-02-09T02:10:04.883Z,19.15
2023-02-09T02:12:32.939Z,15.00
2023-02-09T02:14:59.544Z,16.05
2023-02-09T02:18:11.641Z,9.65
2023-02-09T02:20:40.867Z,14.80
2023-02-09T02:23:29.548Z,15.23
2023-02-09T02:26:20.009Z,12.55
2023-02-09T02:28:58.175Z,7.75
2023-02-09T02:31:56.102Z,9.68
2023-02-09T02:34:53.086Z,13.85
2023-02-09T02:37:25.329Z,16.00
2023-02-09T02:40:17.488Z,19.40
2023-02-09T02:43:01.430Z,15.25
2023-02-09T02:45:34.044Z,15.45
2023-02-09T02:48:15.837Z,13.50
2023-02-09T02:50:51.338Z,11.00
2023-02-09T02:53:22.557Z,13.18
2023-02-09T02:55:50.144Z,11.70
2023-02-09T02:58:19.667Z,12.15
2023-02-09T03:00:51.496Z,13.50
2023-02-09T03:03:21.951Z,14.07
2023-02-09T03:05:50.461Z,14.35
2023-02-09T03:08:17.127Z,12.70
2023-02-09T03:10:46.499Z,13.75
2023-02-09T03:13:43.420Z,11.40
2023-02-09T03:16:16.236Z,11.85
2023-02-09T03:18:52.621Z,12.98
2023-02-09T03:24:05.916Z,13.07
2023-02-09T03:27:10.844Z,13.55
2023-02-09T03:29:39.042Z,14.35
2023-02-09T03:32:06.901Z,13.63
2023-02-09T03:34:33.846Z,12.18
2023-02-09T03:37:01.221Z,15.00
2023-02-09T03:39:27.932Z,13.52
2023-02-09T03:41:54.598Z,13.90
2023-02-09T03:44:27.069Z,12.18
2023-02-09T03:46:57.438Z,10.27
2023-02-09T03:49:25.398Z,11.93
2023-02-09T03:52:07.161Z,11.73
2023-02-09T03:54:34.052Z,13.43
2023-02-09T03:57:01.570Z,15.27
2023-02-09T03:59:29.497Z,14.55
2023-02-09T04:01:58.392Z,14.25
2023-02-09T04:04:26.141Z,16.70
2023-02-09T04:06:53.329Z,31.70
2023-02-09T04:09:20.963Z,16.15
2023-02-09T04:11:48.003Z,16.52
2023-02-09T04:14:15.959Z,16.83
2023-02-09T04:19:42.850Z,18.30
2023-02-09T04:22:09.862Z,22.23
2023-02-09T04:24:36.433Z,17.55
2023-02-09T04:27:04.656Z,15.73
2023-02-09T04:29:31.329Z,16.38
2023-02-09T04:31:58.265Z,15.25
2023-02-09T04:34:25.757Z,17.67
2023-02-09T04:36:52.419Z,16.67
2023-02-09T04:39:19.167Z,15.93
2023-02-09T04:41:45.820Z,16.48
2023-02-09T04:44:12.465Z,15.10
2023-02-09T04:46:39.037Z,15.50
2023-02-09T04:49:05.640Z,12.68
2023-02-09T04:51:32.214Z,12.88
2023-02-09T04:53:58.897Z,15.13
2023-02-09T04:56:25.495Z,11.77
2023-02-09T04:59:10.702Z,14.88
2023-02-09T05:01:38.065Z,14.93
2023-02-09T05:04:04.721Z,13.63
2023-02-09T05:06:31.315Z,13.25
2023-02-09T05:08:59.817Z,15.20
2023-02-09T05:11:27.573Z,18.75
2023-02-09T05:13:54.182Z,13.88
2023-02-09T05:16:20.949Z,20.48
2023-02-09T05:18:47.816Z,18.58
2023-02-09T05:21:14.511Z,17.50
2023-02-09T05:23:42.334Z,21.70
2023-02-09T05:26:09.056Z,19.45
2023-02-09T05:28:35.661Z,21.92
2023-02-09T05:31:02.326Z,21.08
2023-02-09T05:33:29.121Z,18.10
2023-02-09T18:08:57.621Z,6.20
2023-02-09T18:11:40.517Z,6.90
2023-02-09T18:14:07.652Z,4.72
2023-02-09T18:16:36.576Z,6.03
2023-02-09T18:19:03.435Z,7.70
2023-02-09T18:21:30.653Z,8.35
2023-02-09T18:23:57.273Z,6.38
2023-02-09T18:26:23.894Z,3.67
2023-02-09T18:28:50.539Z,7.63
2023-02-09T18:31:17.204Z,6.85
2023-02-09T18:33:44.971Z,7.05
2023-02-09T18:36:15.632Z,5.28
2023-02-09T18:38:42.370Z,6.35
2023-02-09T18:41:12.840Z,5.38
2023-02-09T18:43:40.100Z,6.55
2023-02-09T18:46:06.747Z,5.55
2023-02-09T18:48:33.757Z,7.03
2023-02-09T18:51:01.163Z,5.85
2023-02-09T18:53:27.851Z,6.10
2023-02-09T18:55:54.462Z,6.70
2023-02-09T18:58:21.866Z,5.30
2023-02-09T19:00:48.496Z,6.82
2023-02-09T19:03:17.760Z,6.47
2023-02-09T19:05:45.004Z,6.97
2023-02-09T19:08:13.482Z,7.75
2023-02-09T19:10:42.356Z,7.72
2023-02-09T19:13:10.245Z,6.85
2023-02-09T19:15:39.110Z,3.70
2023-02-09T19:18:06.101Z,7.32
2023-02-09T19:20:34.326Z,7.45
2023-02-09T19:23:02.517Z,7.20
2023-02-09T19:25:36.217Z,7.70
2023-02-09T19:28:02.897Z,9.23
2023-02-09T19:30:37.308Z,10.07
2023-02-09T19:33:04.789Z,8.65
2023-02-09T19:35:31.993Z,8.93
2023-02-09T19:37:58.906Z,9.95
2023-02-09T19:40:37.303Z,12.00
2023-02-09T19:43:05.036Z,9.55
2023-02-09T19:45:36.462Z,9.43
2023-02-09T19:48:05.388Z,11.45
2023-02-09T19:50:38.564Z,11.25
2023-02-09T19:53:06.290Z,11.18
2023-02-09T19:55:33.583Z,9.85
2023-02-09T19:58:00.264Z,9.27
2023-02-09T20:00:28.595Z,12.32
2023-02-09T20:02:55.205Z,8.05
2023-02-09T20:05:21.829Z,12.35
2023-02-09T20:07:49.229Z,11.13
2023-02-09T20:10:16.721Z,7.82
2023-02-09T20:15:15.658Z,8.27
2023-02-09T20:17:42.334Z,9.35
2023-02-09T20:20:09.972Z,9.45
2023-02-09T20:22:37.644Z,8.50
2023-02-09T20:25:04.639Z,9.50
2023-02-09T20:27:31.305Z,8.90
2023-02-09T20:30:01.435Z,8.65
2023-02-09T20:32:28.976Z,7.30
2023-02-09T20:34:56.154Z,7.47
2023-02-09T20:37:22.896Z,7.90
2023-02-09T20:39:49.520Z,7.55
2023-02-09T20:42:34.669Z,12.23
2023-02-09T20:45:20.356Z,10.60
2023-02-09T20:47:46.946Z,9.48
2023-02-09T20:50:16.729Z,12.15
2023-02-09T20:52:45.701Z,9.10
2023-02-09T20:55:13.885Z,7.80
2023-02-09T20:57:40.567Z,11.98
2023-02-09T21:00:09.614Z,12.07
2023-02-09T21:02:37.974Z,8.65
2023-02-09T21:05:07.820Z,9.68
2023-02-09T21:07:35.607Z,11.35
2023-02-09T21:10:02.970Z,11.35
2023-02-09T21:12:29.655Z,10.82
2023-02-09T21:14:56.642Z,8.90
2023-02-09T21:17:24.514Z,12.95
2023-02-09T21:19:51.112Z,11.10
2023-02-09T21:22:17.788Z,12.38
2023-02-09T21:24:45.874Z,11.57
2023-02-09T21:27:13.609Z,9.32
2023-02-09T21:29:40.523Z,9.30
2023-02-09T21:32:07.656Z,11.18
2023-02-09T21:34:34.300Z,11.38
2023-02-09T21:37:00.943Z,7.45
2023-02-09T21:39:27.980Z,11.10
2023-02-09T21:42:13.082Z,12.18
2023-02-09T21:44:40.690Z,11.35
2023-02-09T21:47:07.482Z,13.23
2023-02-09T21:49:34.413Z,12.25
2023-02-09T21:52:02.985Z,9.35
2023-02-09T21:54:33.766Z,8.77
2023-02-09T21:57:05.010Z,10.23
2023-02-09T21:59:31.669Z,10.55
2023-02-09T22:01:58.253Z,7.55
2023-02-09T22:04:25.865Z,9.18
2023-02-09T22:06:52.608Z,6.88
2023-02-09T22:09:20.405Z,6.85
2023-02-09T22:11:47.250Z,5.70
2023-02-09T22:14:14.358Z,7.63
2023-02-09T22:16:41.064Z,6.95
2023-02-09T22:19:08.586Z,8.27
2023-02-09T22:21:35.182Z,6.00
2023-02-09T22:24:01.850Z,9.32
2023-02-09T22:26:30.021Z,8.60
2023-02-09T22:28:56.871Z,6.40
2023-02-09T22:31:23.563Z,9.13
2023-02-09T22:33:58.921Z,6.53
2023-02-09T22:36:25.552Z,10.80
2023-02-09T22:38:52.180Z,7.28
2023-02-09T22:41:22.123Z,10.38
2023-02-09T22:43:51.758Z,8.63
2023-02-09T22:46:19.333Z,6.40
2023-02-09T22:48:58.067Z,10.07
2023-02-09T22:51:28.409Z,6.70
2023-02-09T22:54:00.123Z,8.93
2023-02-09T22:56:28.388Z,6.15
2023-02-09T22:59:00.749Z,7.38
2023-02-09T23:01:29.088Z,8.70
2023-02-09T23:03:55.981Z,10.13
2023-02-09T23:06:27.861Z,9.48
2023-02-09T23:08:56.913Z,9.13
2023-02-09T23:11:24.534Z,6.88
2023-02-09T23:14:03.786Z,7.15
2023-02-09T23:16:35.601Z,8.15
2023-02-09T23:19:06.104Z,9.27
2023-02-09T23:21:35.842Z,8.77
2023-02-09T23:24:03.412Z,6.90
2023-02-09T23:26:30.446Z,8.50
2023-02-09T23:28:59.696Z,7.43
2023-02-09T23:31:27.350Z,8.10
2023-02-09T23:33:55.281Z,7.85
2023-02-09T23:36:25.154Z,7.70
2023-02-09T23:38:55.800Z,7.90
2023-02-09T23:41:22.999Z,7.80
2023-02-09T23:43:50.514Z,7.88
2023-02-09T23:46:20.819Z,7.55
2023-02-09T23:48:48.554Z,7.90
2023-02-09T23:51:20.760Z,7.80
2023-02-09T23:53:47.916Z,7.05
2023-02-09T23:56:17.676Z,8.48
2023-02-09T23:58:46.851Z,8.73
